sensor_id;sensor_type;location;lat;lon;timestamp;pressure;altitude;pressure_sealevel;temperature;humidity
65534;BME280;53640;55.838;37.184;2023-03-14T00:03:35;98764.22;;;-5.74;58.84
65534;BME280;53640;55.838;37.184;2023-03-14T00:06:06;98800.78;;;-5.39;59.26
65534;BME280;53640;55.838;37.184;2023-03-14T00:08:32;98768.06;;;-5.36;59.01
65534;BME280;53640;55.838;37.184;2023-03-14T00:11:07;98781.56;;;-5.30;59.30
65534;BME280;53640;55.838;37.184;2023-03-14T00:13:34;98746.78;;;-5.44;59.55
65534;BME280;53640;55.838;37.184;2023-03-14T00:16:10;98719.28;;;-5.52;59.49
65534;BME280;53640;55.838;37.184;2023-03-14T00:18:38;98715.41;;;-5.47;58.57
65534;BME280;53640;55.838;37.184;2023-03-14T00:21:06;98758.50;;;-5.28;59.20
65534;BME280;53640;55.838;37.184;2023-03-14T00:23:35;98772.72;;;-5.19;59.54
65534;BME280;53640;55.838;37.184;2023-03-14T00:26:05;98778.84;;;-5.18;59.44
65534;BME280;53640;55.838;37.184;2023-03-14T00:28:33;98762.38;;;-5.01;59.35
65534;BME280;53640;55.838;37.184;2023-03-14T00:31:03;98715.38;;;-5.17;59.62
65534;BME280;53640;55.838;37.184;2023-03-14T00:33:31;98756.00;;;-4.98;58.44
65534;BME280;53640;55.838;37.184;2023-03-14T00:36:04;98734.41;;;-5.13;59.57
65534;BME280;53640;55.838;37.184;2023-03-14T00:38:31;98692.66;;;-5.39;60.20
65534;BME280;53640;55.838;37.184;2023-03-14T00:40:58;98729.72;;;-5.10;60.26
65534;BME280;53640;55.838;37.184;2023-03-14T00:43:25;98698.56;;;-5.26;60.14
65534;BME280;53640;55.838;37.184;2023-03-14T00:45:54;98758.34;;;-5.05;60.78
65534;BME280;53640;55.838;37.184;2023-03-14T00:48:20;98730.28;;;-5.06;59.92
65534;BME280;53640;55.838;37.184;2023-03-14T00:50:49;98682.03;;;-5.28;60.50
65534;BME280;53640;55.838;37.184;2023-03-14T00:53:16;98730.28;;;-4.96;60.90
65534;BME280;53640;55.838;37.184;2023-03-14T00:55:43;98722.38;;;-4.96;61.16
65534;BME280;53640;55.838;37.184;2023-03-14T00:58:12;98726.56;;;-4.94;61.06
65534;BME280;53640;55.838;37.184;2023-03-14T01:00:39;98681.38;;;-5.10;61.32
65534;BME280;53640;55.838;37.184;2023-03-14T01:03:06;98722.63;;;-5.09;62.03
65534;BME280;53640;55.838;37.184;2023-03-14T01:05:33;98738.63;;;-5.01;62.68
65534;BME280;53640;55.838;37.184;2023-03-14T01:07:59;98711.09;;;-5.18;62.41
65534;BME280;53640;55.838;37.184;2023-03-14T01:10:27;98714.09;;;-4.92;62.21
65534;BME280;53640;55.838;37.184;2023-03-14T01:12:57;98657.19;;;-5.25;63.03
65534;BME280;53640;55.838;37.184;2023-03-14T01:15:23;98699.59;;;-4.97;63.49
65534;BME280;53640;55.838;37.184;2023-03-14T01:17:49;98692.81;;;-4.90;63.38
65534;BME280;53640;55.838;37.184;2023-03-14T01:20:16;98667.13;;;-4.88;63.19
65534;BME280;53640;55.838;37.184;2023-03-14T01:22:43;98660.59;;;-5.04;63.74
65534;BME280;53640;55.838;37.184;2023-03-14T01:25:14;98636.53;;;-5.10;63.82
65534;BME280;53640;55.838;37.184;2023-03-14T01:27:43;98658.78;;;-4.93;63.90
65534;BME280;53640;55.838;37.184;2023-03-14T01:30:11;98653.94;;;-4.88;63.97
65534;BME280;53640;55.838;37.184;2023-03-14T01:32:39;98648.25;;;-4.84;63.86
65534;BME280;53640;55.838;37.184;2023-03-14T01:35:08;98655.75;;;-4.79;63.95
65534;BME280;53640;55.838;37.184;2023-03-14T01:37:34;98635.06;;;-4.84;64.34
65534;BME280;53640;55.838;37.184;2023-03-14T01:40:02;98582.13;;;-5.11;64.68
65534;BME280;53640;55.838;37.184;2023-03-14T01:42:29;98623.66;;;-4.84;64.83
65534;BME280;53640;55.838;37.184;2023-03-14T01:44:58;98632.13;;;-4.71;64.44
65534;BME280;53640;55.838;37.184;2023-03-14T01:47:25;98619.34;;;-4.76;65.07
65534;BME280;53640;55.838;37.184;2023-03-14T01:49:56;98608.38;;;-4.71;65.07
65534;BME280;53640;55.838;37.184;2023-03-14T01:52:31;98609.63;;;-4.75;64.74
65534;BME280;53640;55.838;37.184;2023-03-14T01:55:07;98601.16;;;-4.79;65.46
65534;BME280;53640;55.838;37.184;2023-03-14T01:57:38;98609.75;;;-4.67;65.39
65534;BME280;53640;55.838;37.184;2023-03-14T02:00:15;98581.00;;;-4.80;65.74
65534;BME280;53640;55.838;37.184;2023-03-14T02:02:49;98628.38;;;-4.59;65.74
65534;BME280;53640;55.838;37.184;2023-03-14T02:05:23;98594.22;;;-4.70;66.18
65534;BME280;53640;55.838;37.184;2023-03-14T02:08:02;98582.78;;;-4.70;66.25
65534;BME280;53640;55.838;37.184;2023-03-14T02:10:41;98568.09;;;-4.73;66.50
65534;BME280;53640;55.838;37.184;2023-03-14T02:13:11;98565.97;;;-4.60;66.48
65534;BME280;53640;55.838;37.184;2023-03-14T02:15:58;98558.75;;;-4.67;67.14
65534;BME280;53640;55.838;37.184;2023-03-14T02:19:02;98577.94;;;-4.56;67.21
65534;BME280;53640;55.838;37.184;2023-03-14T02:21:59;98537.63;;;-4.67;67.57
65534;BME280;53640;55.838;37.184;2023-03-14T02:27:18;98559.44;;;-4.46;67.43
65534;BME280;53640;55.838;37.184;2023-03-14T02:29:52;98526.22;;;-4.48;67.62
65534;BME280;53640;55.838;37.184;2023-03-14T02:32:22;98520.41;;;-4.62;67.89
65534;BME280;53640;55.838;37.184;2023-03-14T02:34:54;98561.09;;;-4.35;67.98
65534;BME280;53640;55.838;37.184;2023-03-14T02:37:24;98515.53;;;-4.57;67.98
65534;BME280;53640;55.838;37.184;2023-03-14T02:39:54;98519.91;;;-4.28;68.06
65534;BME280;53640;55.838;37.184;2023-03-14T02:42:21;98539.69;;;-4.32;68.50
65534;BME280;53640;55.838;37.184;2023-03-14T02:47:37;98560.50;;;-4.19;68.79
65534;BME280;53640;55.838;37.184;2023-03-14T02:50:12;98518.38;;;-4.31;68.75
65534;BME280;53640;55.838;37.184;2023-03-14T02:52:39;98527.19;;;-4.03;68.86
65534;BME280;53640;55.838;37.184;2023-03-14T02:55:07;98560.97;;;-3.96;68.51
65534;BME280;53640;55.838;37.184;2023-03-14T02:57:35;98555.84;;;-3.98;68.75
65534;BME280;53640;55.838;37.184;2023-03-14T03:00:02;98527.31;;;-3.94;69.12
65534;BME280;53640;55.838;37.184;2023-03-14T03:02:35;98498.66;;;-3.99;69.00
65534;BME280;53640;55.838;37.184;2023-03-14T03:05:03;98499.97;;;-3.85;68.63
65534;BME280;53640;55.838;37.184;2023-03-14T03:07:29;98445.56;;;-4.06;68.82
65534;BME280;53640;55.838;37.184;2023-03-14T03:09:57;98500.69;;;-3.83;68.74
65534;BME280;53640;55.838;37.184;2023-03-14T03:12:26;98497.72;;;-3.80;68.53
65534;BME280;53640;55.838;37.184;2023-03-14T03:14:53;98507.97;;;-3.67;68.46
65534;BME280;53640;55.838;37.184;2023-03-14T03:17:22;98457.88;;;-3.96;68.44
65534;BME280;53640;55.838;37.184;2023-03-14T03:19:50;98505.69;;;-3.62;68.65
65534;BME280;53640;55.838;37.184;2023-03-14T03:22:17;98446.38;;;-3.78;68.79
65534;BME280;53640;55.838;37.184;2023-03-14T03:24:43;98450.91;;;-3.70;68.92
65534;BME280;53640;55.838;37.184;2023-03-14T03:27:10;98508.59;;;-3.56;68.94
65534;BME280;53640;55.838;37.184;2023-03-14T03:29:36;98439.78;;;-3.73;69.04
65534;BME280;53640;55.838;37.184;2023-03-14T03:32:03;98470.97;;;-3.49;68.98
65534;BME280;53640;55.838;37.184;2023-03-14T03:34:30;98403.16;;;-3.86;69.19
65534;BME280;53640;55.838;37.184;2023-03-14T03:36:58;98433.78;;;-3.48;68.94
65534;BME280;53640;55.838;37.184;2023-03-14T03:39:26;98446.25;;;-3.40;68.81
65534;BME280;53640;55.838;37.184;2023-03-14T03:41:53;98420.38;;;-3.46;69.07
65534;BME280;53640;55.838;37.184;2023-03-14T03:44:20;98435.19;;;-3.36;68.89
65534;BME280;53640;55.838;37.184;2023-03-14T03:46:47;98433.16;;;-3.24;68.89
65534;BME280;53640;55.838;37.184;2023-03-14T03:49:13;98433.38;;;-3.17;68.96
65534;BME280;53640;55.838;37.184;2023-03-14T03:51:39;98432.25;;;-3.15;68.93
65534;BME280;53640;55.838;37.184;2023-03-14T03:54:08;98396.16;;;-3.42;69.04
65534;BME280;53640;55.838;37.184;2023-03-14T03:56:34;98420.38;;;-3.11;69.24
65534;BME280;53640;55.838;37.184;2023-03-14T03:59:00;98435.63;;;-3.05;69.15
65534;BME280;53640;55.838;37.184;2023-03-14T04:01:27;98419.53;;;-3.11;69.37
65534;BME280;53640;55.838;37.184;2023-03-14T04:03:58;98400.84;;;-3.10;69.36
65534;BME280;53640;55.838;37.184;2023-03-14T04:06:26;98404.25;;;-3.17;69.19
65534;BME280;53640;55.838;37.184;2023-03-14T04:08:56;98394.28;;;-3.23;69.57
65534;BME280;53640;55.838;37.184;2023-03-14T04:11:45;98452.19;;;-3.02;69.69
65534;BME280;53640;55.838;37.184;2023-03-14T04:14:20;98396.97;;;-2.97;69.77
65534;BME280;53640;55.838;37.184;2023-03-14T04:16:50;98411.75;;;-2.87;69.58
65534;BME280;53640;55.838;37.184;2023-03-14T04:19:20;98431.97;;;-2.86;69.71
65534;BME280;53640;55.838;37.184;2023-03-14T04:21:49;98416.47;;;-2.98;69.69
65534;BME280;53640;55.838;37.184;2023-03-14T04:24:16;98392.56;;;-2.89;69.56
65534;BME280;53640;55.838;37.184;2023-03-14T04:26:45;98400.22;;;-2.86;69.86
65534;BME280;53640;55.838;37.184;2023-03-14T04:29:12;98429.44;;;-2.69;69.51
65534;BME280;53640;55.838;37.184;2023-03-14T04:31:39;98381.44;;;-2.66;69.77
65534;BME280;53640;55.838;37.184;2023-03-14T04:34:05;98352.69;;;-2.87;69.75
65534;BME280;53640;55.838;37.184;2023-03-14T04:36:38;98380.16;;;-2.62;69.64
65534;BME280;53640;55.838;37.184;2023-03-14T04:39:08;98340.81;;;-2.75;69.70
65534;BME280;53640;55.838;37.184;2023-03-14T04:41:38;98316.41;;;-2.95;69.60
65534;BME280;53640;55.838;37.184;2023-03-14T04:44:06;98342.06;;;-2.61;69.55
65534;BME280;53640;55.838;37.184;2023-03-14T04:46:35;98305.56;;;-2.75;69.72
65534;BME280;53640;55.838;37.184;2023-03-14T04:49:05;98319.31;;;-2.72;69.67
65534;BME280;53640;55.838;37.184;2023-03-14T04:51:31;98381.34;;;-2.48;70.07
65534;BME280;53640;55.838;37.184;2023-03-14T04:53:57;98342.88;;;-2.61;70.13
65534;BME280;53640;55.838;37.184;2023-03-14T04:56:27;98274.78;;;-2.76;69.89
65534;BME280;53640;55.838;37.184;2023-03-14T04:58:55;98343.63;;;-2.42;70.00
65534;BME280;53640;55.838;37.184;2023-03-14T05:01:21;98255.91;;;-2.82;70.09
65534;BME280;53640;55.838;37.184;2023-03-14T05:04:06;98344.97;;;-2.38;69.86
65534;BME280;53640;55.838;37.184;2023-03-14T05:07:08;98297.94;;;-2.36;70.17
65534;BME280;53640;55.838;37.184;2023-03-14T05:10:04;98343.22;;;-2.21;69.74
65534;BME280;53640;55.838;37.184;2023-03-14T05:12:46;98305.16;;;-2.54;70.19
65534;BME280;53640;55.838;37.184;2023-03-14T05:15:42;98339.06;;;-2.24;70.66
65534;BME280;53640;55.838;37.184;2023-03-14T05:18:26;98290.31;;;-2.39;70.46
65534;BME280;53640;55.838;37.184;2023-03-14T05:21:06;98370.25;;;-2.10;70.24
65534;BME280;53640;55.838;37.184;2023-03-14T05:23:55;98357.97;;;-2.11;70.48
65534;BME280;53640;55.838;37.184;2023-03-14T05:26:44;98227.09;;;-2.85;70.64
65534;BME280;53640;55.838;37.184;2023-03-14T05:29:20;98350.69;;;-2.09;70.18
65534;BME280;53640;55.838;37.184;2023-03-14T05:31:58;98290.41;;;-2.57;70.53
65534;BME280;53640;55.838;37.184;2023-03-14T05:34:46;98326.09;;;-2.35;70.57
65534;BME280;53640;55.838;37.184;2023-03-14T05:37:48;98362.16;;;-1.92;70.51
65534;BME280;53640;55.838;37.184;2023-03-14T05:40:31;98338.28;;;-2.00;70.25
65534;BME280;53640;55.838;37.184;2023-03-14T05:43:28;98344.56;;;-2.09;70.50
65534;BME280;53640;55.838;37.184;2023-03-14T05:46:17;98356.38;;;-1.87;70.10
65534;BME280;53640;55.838;37.184;2023-03-14T05:48:52;98378.75;;;-1.81;70.33
65534;BME280;53640;55.838;37.184;2023-03-14T05:51:38;98343.72;;;-2.18;70.22
65534;BME280;53640;55.838;37.184;2023-03-14T05:54:22;98376.28;;;-1.83;70.63
65534;BME280;53640;55.838;37.184;2023-03-14T05:57:12;98336.97;;;-1.96;70.27
65534;BME280;53640;55.838;37.184;2023-03-14T05:59:59;98376.78;;;-1.88;70.06
65534;BME280;53640;55.838;37.184;2023-03-14T06:02:47;98259.84;;;-2.27;69.88
65534;BME280;53640;55.838;37.184;2023-03-14T06:05:24;98327.72;;;-1.75;70.14
65534;BME280;53640;55.838;37.184;2023-03-14T06:07:58;98358.06;;;-1.70;70.01
65534;BME280;53640;55.838;37.184;2023-03-14T06:10:27;98304.66;;;-1.83;69.75
65534;BME280;53640;55.838;37.184;2023-03-14T06:12:56;98358.72;;;-1.68;69.44
65534;BME280;53640;55.838;37.184;2023-03-14T06:15:28;98351.78;;;-1.69;69.62
65534;BME280;53640;55.838;37.184;2023-03-14T06:17:56;98343.47;;;-1.66;69.96
65534;BME280;53640;55.838;37.184;2023-03-14T06:20:23;98328.41;;;-1.65;69.62
65534;BME280;53640;55.838;37.184;2023-03-14T06:22:50;98343.81;;;-1.52;70.04
65534;BME280;53640;55.838;37.184;2023-03-14T06:25:17;98379.66;;;-1.48;69.94
65534;BME280;53640;55.838;37.184;2023-03-14T06:27:46;98360.41;;;-1.42;69.72
65534;BME280;53640;55.838;37.184;2023-03-14T06:30:13;98353.09;;;-1.56;69.67
65534;BME280;53640;55.838;37.184;2023-03-14T06:32:40;98301.19;;;-1.67;69.69
65534;BME280;53640;55.838;37.184;2023-03-14T06:35:11;98305.00;;;-1.62;69.11
65534;BME280;53640;55.838;37.184;2023-03-14T06:37:41;98358.59;;;-1.33;69.56
65534;BME280;53640;55.838;37.184;2023-03-14T06:40:10;98301.03;;;-1.57;69.59
65534;BME280;53640;55.838;37.184;2023-03-14T06:43:02;98358.91;;;-1.28;69.23
65534;BME280;53640;55.838;37.184;2023-03-14T06:45:32;98304.53;;;-1.57;69.29
65534;BME280;53640;55.838;37.184;2023-03-14T06:48:00;98302.69;;;-1.48;70.22
65534;BME280;53640;55.838;37.184;2023-03-14T06:50:39;98332.69;;;-1.56;69.85
65534;BME280;53640;55.838;37.184;2023-03-14T06:53:06;98304.00;;;-1.77;70.13
65534;BME280;53640;55.838;37.184;2023-03-14T06:55:36;98316.59;;;-1.71;70.51
65534;BME280;53640;55.838;37.184;2023-03-14T06:58:03;98299.19;;;-1.41;69.78
65534;BME280;53640;55.838;37.184;2023-03-14T07:00:36;98287.41;;;-1.54;69.59
65534;BME280;53640;55.838;37.184;2023-03-14T07:03:04;98356.72;;;-1.17;69.24
65534;BME280;53640;55.838;37.184;2023-03-14T07:05:39;98361.56;;;-1.12;69.67
65534;BME280;53640;55.838;37.184;2023-03-14T07:08:08;98350.47;;;-1.24;70.05
65534;BME280;53640;55.838;37.184;2023-03-14T07:10:36;98303.31;;;-1.22;69.72
65534;BME280;53640;55.838;37.184;2023-03-14T07:13:02;98344.94;;;-0.90;69.61
65534;BME280;53640;55.838;37.184;2023-03-14T07:15:35;98339.97;;;-1.09;69.34
65534;BME280;53640;55.838;37.184;2023-03-14T07:18:08;98395.41;;;-0.90;69.56
65534;BME280;53640;55.838;37.184;2023-03-14T07:20:34;98337.13;;;-0.91;69.22
65534;BME280;53640;55.838;37.184;2023-03-14T07:23:02;98321.41;;;-1.25;69.38
65534;BME280;53640;55.838;37.184;2023-03-14T07:25:39;98349.22;;;-0.80;68.16
65534;BME280;53640;55.838;37.184;2023-03-14T07:28:07;98349.78;;;-1.01;68.26
65534;BME280;53640;55.838;37.184;2023-03-14T07:30:38;98348.28;;;-1.04;68.52
65534;BME280;53640;55.838;37.184;2023-03-14T07:33:11;98309.97;;;-1.34;68.84
65534;BME280;53640;55.838;37.184;2023-03-14T07:35:38;98401.38;;;-0.88;69.02
65534;BME280;53640;55.838;37.184;2023-03-14T07:38:26;98284.22;;;-1.17;68.49
65534;BME280;53640;55.838;37.184;2023-03-14T07:41:11;98386.22;;;-0.79;68.96
65534;BME280;53640;55.838;37.184;2023-03-14T07:43:46;98333.81;;;-1.10;68.41
65534;BME280;53640;55.838;37.184;2023-03-14T07:46:12;98331.00;;;-1.00;67.52
65534;BME280;53640;55.838;37.184;2023-03-14T07:48:39;98321.66;;;-0.88;67.36
65534;BME280;53640;55.838;37.184;2023-03-14T07:51:06;98337.72;;;-0.73;67.48
65534;BME280;53640;55.838;37.184;2023-03-14T07:53:33;98373.03;;;-0.48;65.87
65534;BME280;53640;55.838;37.184;2023-03-14T07:55:59;98346.38;;;-0.71;65.78
65534;BME280;53640;55.838;37.184;2023-03-14T07:58:26;98368.38;;;-0.46;66.35
65534;BME280;53640;55.838;37.184;2023-03-14T08:00:53;98348.66;;;-0.59;66.09
65534;BME280;53640;55.838;37.184;2023-03-14T08:03:23;98341.84;;;-0.62;66.32
65534;BME280;53640;55.838;37.184;2023-03-14T08:05:51;98356.66;;;-0.59;65.85
65534;BME280;53640;55.838;37.184;2023-03-14T08:08:18;98368.22;;;-0.44;66.36
65534;BME280;53640;55.838;37.184;2023-03-14T08:10:45;98373.56;;;-0.52;66.97
65534;BME280;53640;55.838;37.184;2023-03-14T08:13:13;98409.75;;;-0.43;66.12
65534;BME280;53640;55.838;37.184;2023-03-14T08:15:40;98363.28;;;-0.55;66.50
65534;BME280;53640;55.838;37.184;2023-03-14T08:18:07;98321.31;;;-0.76;66.31
65534;BME280;53640;55.838;37.184;2023-03-14T08:20:35;98336.63;;;-0.39;66.52
65534;BME280;53640;55.838;37.184;2023-03-14T08:23:02;98382.56;;;-0.14;65.45
65534;BME280;53640;55.838;37.184;2023-03-14T08:25:30;98374.50;;;-0.37;66.12
65534;BME280;53640;55.838;37.184;2023-03-14T08:27:57;98324.34;;;-0.40;66.61
65534;BME280;53640;55.838;37.184;2023-03-14T08:30:28;98366.41;;;-0.13;66.73
65534;BME280;53640;55.838;37.184;2023-03-14T08:32:57;98357.81;;;-0.23;66.51
65534;BME280;53640;55.838;37.184;2023-03-14T08:35:25;98281.97;;;-0.81;65.81
65534;BME280;53640;55.838;37.184;2023-03-14T08:37:51;98249.13;;;-0.88;66.08
65534;BME280;53640;55.838;37.184;2023-03-14T08:40:19;98187.66;;;-1.16;65.24
65534;BME280;53640;55.838;37.184;2023-03-14T08:42:46;98218.56;;;-0.84;65.76
65534;BME280;53640;55.838;37.184;2023-03-14T08:49:15;98275.06;;;-0.59;65.64
65534;BME280;53640;55.838;37.184;2023-03-14T08:51:45;98302.09;;;-0.47;68.06
65534;BME280;53640;55.838;37.184;2023-03-14T08:54:12;98198.84;;;-0.98;67.28
65534;BME280;53640;55.838;37.184;2023-03-14T08:56:41;98284.22;;;-0.62;68.20
65534;BME280;53640;55.838;37.184;2023-03-14T08:59:08;98298.47;;;-0.54;69.42
65534;BME280;53640;55.838;37.184;2023-03-14T09:01:40;98385.25;;;0.09;68.26
65534;BME280;53640;55.838;37.184;2023-03-14T09:04:06;98272.81;;;-0.39;67.98
65534;BME280;53640;55.838;37.184;2023-03-14T09:06:33;98293.88;;;-0.29;68.96
65534;BME280;53640;55.838;37.184;2023-03-14T09:09:00;98294.25;;;-0.09;65.61
65534;BME280;53640;55.838;37.184;2023-03-14T09:11:29;98324.72;;;0.11;69.28
65534;BME280;53640;55.838;37.184;2023-03-14T09:13:55;98345.00;;;0.12;68.08
65534;BME280;53640;55.838;37.184;2023-03-14T09:16:25;98337.50;;;0.16;68.41
65534;BME280;53640;55.838;37.184;2023-03-14T09:18:54;98324.59;;;0.04;66.26
65534;BME280;53640;55.838;37.184;2023-03-14T09:21:23;98269.34;;;-0.40;68.75
65534;BME280;53640;55.838;37.184;2023-03-14T09:23:55;98279.09;;;-0.63;68.31
65534;BME280;53640;55.838;37.184;2023-03-14T09:26:22;98297.31;;;-0.21;66.05
65534;BME280;53640;55.838;37.184;2023-03-14T09:28:48;98291.72;;;-0.03;64.00
65534;BME280;53640;55.838;37.184;2023-03-14T09:31:15;98196.22;;;-0.67;67.88
65534;BME280;53640;55.838;37.184;2023-03-14T09:33:42;98355.53;;;0.28;65.64
65534;BME280;53640;55.838;37.184;2023-03-14T09:36:09;98335.47;;;0.18;66.43
65534;BME280;53640;55.838;37.184;2023-03-14T09:38:35;98418.31;;;0.46;67.85
65534;BME280;53640;55.838;37.184;2023-03-14T09:41:06;98340.50;;;0.13;68.19
65534;BME280;53640;55.838;37.184;2023-03-14T09:43:37;98338.97;;;0.18;68.89
65534;BME280;53640;55.838;37.184;2023-03-14T09:46:04;98359.50;;;0.32;65.60
65534;BME280;53640;55.838;37.184;2023-03-14T09:48:32;98312.06;;;0.13;61.98
65534;BME280;53640;55.838;37.184;2023-03-14T09:51:02;98321.06;;;0.12;67.47
65534;BME280;53640;55.838;37.184;2023-03-14T09:53:42;98380.81;;;0.55;67.58
65534;BME280;53640;55.838;37.184;2023-03-14T09:56:17;98419.03;;;0.40;67.17
65534;BME280;53640;55.838;37.184;2023-03-14T09:58:54;98375.06;;;0.44;68.99
65534;BME280;53640;55.838;37.184;2023-03-14T10:01:28;98277.41;;;-0.02;68.49
65534;BME280;53640;55.838;37.184;2023-03-14T10:04:09;98336.75;;;0.53;68.41
65534;BME280;53640;55.838;37.184;2023-03-14T10:06:36;98358.06;;;0.45;68.55
65534;BME280;53640;55.838;37.184;2023-03-14T10:09:03;98293.84;;;0.02;69.53
65534;BME280;53640;55.838;37.184;2023-03-14T10:11:35;98350.16;;;0.59;67.80
65534;BME280;53640;55.838;37.184;2023-03-14T10:16:36;98340.47;;;0.44;70.38
65534;BME280;53640;55.838;37.184;2023-03-14T10:19:13;98311.13;;;0.06;70.98
65534;BME280;53640;55.838;37.184;2023-03-14T10:21:50;98257.81;;;-0.32;70.56
65534;BME280;53640;55.838;37.184;2023-03-14T10:24:30;98219.16;;;-0.43;69.73
65534;BME280;53640;55.838;37.184;2023-03-14T10:27:18;98251.41;;;-0.15;69.98
65534;BME280;53640;55.838;37.184;2023-03-14T10:29:59;98266.88;;;-0.18;71.29
65534;BME280;53640;55.838;37.184;2023-03-14T10:32:36;98296.09;;;0.13;71.45
65534;BME280;53640;55.838;37.184;2023-03-14T10:42:58;98316.72;;;0.34;72.13
65534;BME280;53640;55.838;37.184;2023-03-14T10:45:30;98254.91;;;0.09;71.64
65534;BME280;53640;55.838;37.184;2023-03-14T10:48:06;98312.03;;;0.59;70.57
65534;BME280;53640;55.838;37.184;2023-03-14T10:53:59;98264.50;;;0.33;72.38
65534;BME280;53640;55.838;37.184;2023-03-14T10:56:27;98278.81;;;0.55;72.17
65534;BME280;53640;55.838;37.184;2023-03-14T10:58:56;98304.41;;;0.56;72.15
65534;BME280;53640;55.838;37.184;2023-03-14T11:04:50;98307.94;;;0.71;70.88
65534;BME280;53640;55.838;37.184;2023-03-14T11:07:26;98312.16;;;0.66;71.40
65534;BME280;53640;55.838;37.184;2023-03-14T11:13:46;98314.50;;;0.83;69.95
65534;BME280;53640;55.838;37.184;2023-03-14T11:19:56;98244.09;;;0.63;69.49
65534;BME280;53640;55.838;37.184;2023-03-14T11:22:13;98309.78;;;1.08;68.00
65534;BME280;53640;55.838;37.184;2023-03-14T11:24:47;98336.53;;;1.15;70.96
65534;BME280;53640;55.838;37.184;2023-03-14T11:27:26;98320.16;;;1.18;71.45
65534;BME280;53640;55.838;37.184;2023-03-14T11:33:15;98282.66;;;1.20;70.23
65534;BME280;53640;55.838;37.184;2023-03-14T11:36:11;98296.44;;;1.38;69.27
65534;BME280;53640;55.838;37.184;2023-03-14T11:38:52;98363.19;;;1.45;67.79
65534;BME280;53640;55.838;37.184;2023-03-14T11:41:33;98294.91;;;1.29;64.79
65534;BME280;53640;55.838;37.184;2023-03-14T11:44:19;98353.16;;;1.47;64.32
65534;BME280;53640;55.838;37.184;2023-03-14T11:52:22;98251.44;;;1.14;61.68
65534;BME280;53640;55.838;37.184;2023-03-14T11:55:23;98306.28;;;1.38;61.00
65534;BME280;53640;55.838;37.184;2023-03-14T11:57:56;98328.44;;;1.38;57.98
65534;BME280;53640;55.838;37.184;2023-03-14T12:00:25;98317.41;;;1.41;64.28
65534;BME280;53640;55.838;37.184;2023-03-14T12:03:10;98305.56;;;1.44;58.39
65534;BME280;53640;55.838;37.184;2023-03-14T12:08:56;98307.47;;;1.50;60.40
65534;BME280;53640;55.838;37.184;2023-03-14T12:11:40;98325.75;;;1.68;57.18
65534;BME280;53640;55.838;37.184;2023-03-14T12:14:30;98303.50;;;1.61;60.04
65534;BME280;53640;55.838;37.184;2023-03-14T12:17:05;98314.25;;;1.67;60.63
65534;BME280;53640;55.838;37.184;2023-03-14T12:19:40;98346.63;;;1.64;60.48
65534;BME280;53640;55.838;37.184;2023-03-14T12:25:20;98342.09;;;1.94;57.75
65534;BME280;53640;55.838;37.184;2023-03-14T12:30:29;98371.53;;;2.01;63.28
65534;BME280;53640;55.838;37.184;2023-03-14T12:33:20;98284.50;;;1.49;61.93
65534;BME280;53640;55.838;37.184;2023-03-14T12:35:48;98342.63;;;2.04;59.30
65534;BME280;53640;55.838;37.184;2023-03-14T12:43:52;98319.78;;;2.02;62.66
65534;BME280;53640;55.838;37.184;2023-03-14T12:46:25;98355.88;;;1.98;61.06
65534;BME280;53640;55.838;37.184;2023-03-14T12:57:30;98246.47;;;1.62;61.20
65534;BME280;53640;55.838;37.184;2023-03-14T13:00:13;98237.41;;;1.56;62.31
65534;BME280;53640;55.838;37.184;2023-03-14T13:03:12;98294.88;;;1.95;62.42
65534;BME280;53640;55.838;37.184;2023-03-14T13:06:00;98226.38;;;1.80;59.49
65534;BME280;53640;55.838;37.184;2023-03-14T13:08:44;98359.25;;;2.43;60.16
65534;BME280;53640;55.838;37.184;2023-03-14T13:11:21;98242.41;;;2.02;63.61
65534;BME280;53640;55.838;37.184;2023-03-14T13:13:55;98329.44;;;2.39;61.28
65534;BME280;53640;55.838;37.184;2023-03-14T13:16:23;98200.31;;;1.61;61.19
65534;BME280;53640;55.838;37.184;2023-03-14T13:19:02;98261.97;;;2.09;62.57
65534;BME280;53640;55.838;37.184;2023-03-14T13:21:35;98230.63;;;1.75;60.43
65534;BME280;53640;55.838;37.184;2023-03-14T13:24:05;98294.13;;;2.01;60.79
65534;BME280;53640;55.838;37.184;2023-03-14T13:26:40;98315.06;;;2.40;55.12
65534;BME280;53640;55.838;37.184;2023-03-14T13:31:46;98244.16;;;1.73;58.41
65534;BME280;53640;55.838;37.184;2023-03-14T13:34:13;98328.16;;;2.35;56.83
65534;BME280;53640;55.838;37.184;2023-03-14T13:36:41;98267.94;;;1.90;55.53
65534;BME280;53640;55.838;37.184;2023-03-14T13:39:13;98204.84;;;1.46;61.93
65534;BME280;53640;55.838;37.184;2023-03-14T13:41:41;98261.91;;;2.02;60.87
65534;BME280;53640;55.838;37.184;2023-03-14T13:44:17;98199.16;;;1.49;60.80
65534;BME280;53640;55.838;37.184;2023-03-14T13:46:47;98277.75;;;2.04;58.43
65534;BME280;53640;55.838;37.184;2023-03-14T13:49:21;98245.13;;;1.87;56.77
65534;BME280;53640;55.838;37.184;2023-03-14T13:51:48;98330.38;;;2.32;57.92
65534;BME280;53640;55.838;37.184;2023-03-14T13:54:20;98266.53;;;1.94;60.89
65534;BME280;53640;55.838;37.184;2023-03-14T13:57:58;98297.31;;;2.11;58.09
65534;BME280;53640;55.838;37.184;2023-03-14T14:00:27;98301.91;;;2.39;59.23
65534;BME280;53640;55.838;37.184;2023-03-14T14:02:58;98237.56;;;1.91;59.78
65534;BME280;53640;55.838;37.184;2023-03-14T14:05:27;98204.69;;;1.69;60.88
65534;BME280;53640;55.838;37.184;2023-03-14T14:07:57;98330.53;;;2.45;59.41
65534;BME280;53640;55.838;37.184;2023-03-14T14:10:37;98269.97;;;2.09;59.82
65534;BME280;53640;55.838;37.184;2023-03-14T14:13:27;98247.03;;;1.93;58.37
65534;BME280;53640;55.838;37.184;2023-03-14T14:15:59;98233.41;;;1.88;56.51
65534;BME280;53640;55.838;37.184;2023-03-14T14:18:32;98234.72;;;1.92;60.17
65534;BME280;53640;55.838;37.184;2023-03-14T14:21:05;98240.59;;;1.88;59.72
65534;BME280;53640;55.838;37.184;2023-03-14T14:23:33;98238.97;;;1.87;56.90
65534;BME280;53640;55.838;37.184;2023-03-14T14:26:08;98335.97;;;2.15;58.96
65534;BME280;53640;55.838;37.184;2023-03-14T14:28:37;98239.78;;;1.87;57.75
65534;BME280;53640;55.838;37.184;2023-03-14T14:31:26;98360.84;;;2.59;56.52